Terminal Aerodrome Forecast
Issued by NWS

Home | Current Version | Previous Version | Text Only | Print | Product List | Glossary On
Versions: 1 2 3 4 5 6 7 8 9 10 11 12 13 14 15 16 17 18 19 20 21 22 23 24 25 26
283
FTUS43 KGRR 261417 AAA
TAFBTL
TAF AMD
KBTL 261417Z 2614/2712 25005KT 5SM BR OVC004
     FM261500 23004KT P6SM SCT007
     FM270000 12004KT 4SM -TSRA BR OVC040CB
     FM270200 10004KT 4SM -SHRA BR VCTS OVC015CB
     FM270400 VRB06KT 2SM -DZ BR OVC003
     FM270800 35004KT 4SM BR OVC007=

USA.gov is the U.S. government's official web portal to all federal, state and local government web resources and services.